Time;durP1;ratioP1;P1;durP2;ratioP2;P2;SDS_P1;SDS_P2;PMS_P1;PMS_P2;Temp;Humidity;BMP_temperature;BMP_pressure;BME280_temperature;BME280_humidity;BME280_pressure;Samples;Min_cycle;Max_cycle;Signal;HPM_P1;HPM_P2
2024/02/23 00:00:36;;;;;;;8.02;1.30;;;4.00;99.90;;;;;;5081866;28;20044;-70
2024/02/23 00:03:03;;;;;;;15.40;1.95;;;4.00;99.90;;;;;;5105720;28;20100;-71
2024/02/23 00:05:31;;;;;;;10.70;1.60;;;4.00;99.90;;;;;;5098433;28;20044;-71
2024/02/23 00:07:58;;;;;;;7.72;1.15;;;4.00;99.90;;;;;;5087670;28;20051;-71
2024/02/23 00:10:25;;;;;;;4.32;1.33;;;4.00;99.90;;;;;;5102963;28;20043;-70
2024/02/23 00:12:52;;;;;;;18.25;2.88;;;4.00;99.90;;;;;;5106220;28;20535;-71
2024/02/23 00:15:19;;;;;;;7.05;1.13;;;3.90;99.90;;;;;;5104725;28;20036;-70
2024/02/23 00:17:46;;;;;;;5.72;1.30;;;3.90;99.90;;;;;;5104382;28;20083;-71
2024/02/23 00:20:14;;;;;;;10.75;1.80;;;3.90;99.90;;;;;;5100209;28;20637;-71
2024/02/23 00:22:42;;;;;;;4.05;1.45;;;3.90;99.90;;;;;;5104913;28;20397;-70
2024/02/23 00:25:08;;;;;;;6.03;1.42;;;3.90;99.90;;;;;;5106340;28;20104;-70
2024/02/23 00:27:36;;;;;;;9.48;1.75;;;3.90;99.90;;;;;;5101406;28;20163;-71
2024/02/23 00:30:03;;;;;;;10.82;1.80;;;3.90;99.90;;;;;;5097745;28;20074;-71
2024/02/23 00:32:30;;;;;;;6.38;2.00;;;3.90;99.90;;;;;;5099004;28;20496;-71
2024/02/23 00:34:57;;;;;;;12.95;1.10;;;3.90;99.90;;;;;;5093371;28;20066;-71
2024/02/23 00:37:24;;;;;;;12.35;1.67;;;4.00;99.90;;;;;;5097700;28;20067;-70
2024/02/23 00:39:51;;;;;;;11.18;1.73;;;4.00;99.90;;;;;;5105740;28;20091;-70
2024/02/23 00:42:18;;;;;;;6.93;0.77;;;4.00;99.90;;;;;;5102050;28;20446;-70
2024/02/23 00:44:45;;;;;;;6.43;1.98;;;4.00;99.90;;;;;;5102242;28;20128;-72
2024/02/23 00:47:12;;;;;;;8.73;1.90;;;4.00;99.90;;;;;;5102548;28;20442;-71
2024/02/23 00:49:39;;;;;;;11.15;1.70;;;4.10;99.90;;;;;;5102834;28;20040;-71
2024/02/23 00:52:06;;;;;;;8.65;1.80;;;4.00;99.90;;;;;;5105348;28;20233;-70
2024/02/23 00:54:33;;;;;;;15.75;1.48;;;4.00;99.90;;;;;;5103392;28;20043;-71
2024/02/23 00:57:00;;;;;;;10.77;1.50;;;4.10;99.90;;;;;;5106077;28;20039;-72
2024/02/23 00:59:26;;;;;;;11.48;1.55;;;4.20;99.90;;;;;;5102665;28;20059;-71
2024/02/23 01:01:55;;;;;;;9.98;2.72;;;4.10;99.90;;;;;;5103495;28;20127;-70
2024/02/23 01:04:22;;;;;;;11.15;1.88;;;4.10;99.90;;;;;;5099136;28;20044;-70
2024/02/23 01:06:49;;;;;;;9.73;1.42;;;4.10;99.90;;;;;;5096546;28;20059;-70
2024/02/23 01:09:20;;;;;;;9.02;1.58;;;4.10;99.90;;;;;;5103374;28;20449;-70
2024/02/23 01:11:47;;;;;;;7.18;1.83;;;4.10;99.90;;;;;;5104929;28;20071;-70
2024/02/23 01:14:15;;;;;;;6.35;1.35;;;4.10;99.90;;;;;;5086564;28;20051;-71
2024/02/23 01:16:42;;;;;;;15.55;2.75;;;4.10;99.90;;;;;;5106844;28;20465;-70
2024/02/23 01:19:11;;;;;;;14.38;1.35;;;4.10;99.90;;;;;;5104805;28;20407;-70
2024/02/23 01:21:39;;;;;;;6.00;1.42;;;4.10;99.90;;;;;;5100468;28;20054;-71
2024/02/23 01:24:06;;;;;;;4.28;1.45;;;4.10;99.90;;;;;;5109081;28;20044;-66
2024/02/23 01:26:32;;;;;;;16.02;2.35;;;4.10;99.90;;;;;;5103275;28;20484;-70
2024/02/23 01:28:59;;;;;;;7.13;1.48;;;4.10;99.90;;;;;;5102964;28;20051;-69
2024/02/23 01:31:26;;;;;;;8.32;1.52;;;4.10;99.90;;;;;;5098592;28;20408;-70
2024/02/23 01:33:53;;;;;;;7.55;1.48;;;4.10;99.90;;;;;;5109918;28;20496;-69
2024/02/23 01:36:20;;;;;;;11.43;2.03;;;4.10;99.90;;;;;;5075310;28;20424;-69
2024/02/23 01:38:47;;;;;;;17.83;1.98;;;4.10;99.90;;;;;;5095177;28;20097;-71
2024/02/23 01:41:14;;;;;;;16.25;1.45;;;4.10;99.90;;;;;;5095354;28;20562;-70
2024/02/23 01:43:41;;;;;;;12.05;1.58;;;4.40;99.90;;;;;;5107102;28;20542;-70
2024/02/23 01:46:08;;;;;;;11.57;1.58;;;4.20;99.90;;;;;;5107346;28;20051;-72
2024/02/23 01:48:35;;;;;;;14.50;3.33;;;4.20;99.90;;;;;;5107018;28;20488;-69
2024/02/23 01:51:02;;;;;;;18.33;2.65;;;4.30;99.90;;;;;;5089502;28;20047;-70
2024/02/23 01:53:29;;;;;;;14.82;3.08;;;4.30;99.90;;;;;;5106271;28;20460;-71
2024/02/23 01:55:56;;;;;;;13.80;2.60;;;4.30;99.90;;;;;;5105107;28;20127;-71
2024/02/23 01:58:23;;;;;;;6.03;2.40;;;4.40;99.90;;;;;;5090688;28;20458;-71
2024/02/23 02:00:49;;;;;;;9.70;1.40;;;4.40;99.90;;;;;;5103152;28;20040;-70
2024/02/23 02:03:16;;;;;;;13.25;1.92;;;4.50;99.90;;;;;;5106353;28;20066;-70
2024/02/23 02:05:44;;;;;;;15.25;2.67;;;4.50;99.90;;;;;;5104339;28;20335;-70
2024/02/23 02:08:11;;;;;;;19.58;2.17;;;4.50;99.90;;;;;;5107620;28;20055;-68
2024/02/23 02:10:38;;;;;;;10.55;2.53;;;4.60;99.90;;;;;;5088803;28;20146;-70
2024/02/23 02:13:05;;;;;;;11.48;2.08;;;4.60;99.90;;;;;;5107915;28;20093;-70
2024/02/23 02:15:32;;;;;;;10.98;2.08;;;4.60;99.90;;;;;;5107032;28;20559;-70
2024/02/23 02:17:59;;;;;;;15.70;1.55;;;4.60;99.90;;;;;;5105779;28;20103;-70
2024/02/23 02:20:26;;;;;;;13.52;1.75;;;4.70;99.90;;;;;;5096039;28;20047;-70
2024/02/23 02:22:53;;;;;;;13.23;2.67;;;4.70;99.90;;;;;;5102507;28;20492;-70
2024/02/23 02:25:20;;;;;;;11.05;2.70;;;4.70;99.90;;;;;;5098930;28;20079;-71
2024/02/23 02:27:47;;;;;;;10.98;2.60;;;4.70;99.90;;;;;;5097768;28;20044;-70
2024/02/23 02:30:14;;;;;;;13.63;1.45;;;4.70;99.90;;;;;;5103584;28;20051;-71
2024/02/23 02:32:40;;;;;;;10.60;1.83;;;4.70;99.90;;;;;;5103904;28;20056;-69
2024/02/23 02:35:11;;;;;;;19.42;2.88;;;4.70;99.90;;;;;;5105115;28;20082;-71
2024/02/23 02:37:39;;;;;;;12.02;1.73;;;4.70;99.90;;;;;;5086690;28;20039;-72
2024/02/23 02:40:06;;;;;;;19.55;3.65;;;4.70;99.90;;;;;;5107535;28;20078;-71
2024/02/23 02:42:33;;;;;;;9.95;2.08;;;4.70;99.90;;;;;;5107107;28;20116;-68
2024/02/23 02:45:00;;;;;;;11.98;2.05;;;4.70;99.90;;;;;;5104005;28;20048;-69
2024/02/23 02:47:27;;;;;;;6.97;1.63;;;4.80;99.90;;;;;;5106768;28;20452;-69
2024/02/23 02:49:54;;;;;;;7.10;1.60;;;4.80;99.90;;;;;;5105109;28;20044;-69
2024/02/23 02:52:23;;;;;;;9.07;1.40;;;4.80;99.90;;;;;;5105541;28;20047;-70
2024/02/23 02:54:50;;;;;;;12.50;1.85;;;4.80;99.90;;;;;;5106734;28;20343;-70
2024/02/23 02:57:17;;;;;;;9.85;1.27;;;4.80;99.90;;;;;;5106127;28;20062;-70
2024/02/23 02:59:45;;;;;;;13.50;1.63;;;4.80;99.90;;;;;;5106446;28;20043;-70
2024/02/23 03:02:12;;;;;;;12.63;2.28;;;4.80;99.90;;;;;;5107250;28;20427;-70
2024/02/23 03:04:39;;;;;;;10.18;1.98;;;4.80;99.90;;;;;;5106434;28;20527;-70
2024/02/23 03:07:06;;;;;;;9.88;2.17;;;4.90;99.90;;;;;;5107036;28;20548;-71
2024/02/23 03:09:32;;;;;;;5.18;1.10;;;5.00;99.90;;;;;;5101350;28;20048;-70
2024/02/23 03:11:59;;;;;;;8.88;1.17;;;4.90;99.90;;;;;;5097632;28;20124;-69
2024/02/23 03:14:26;;;;;;;7.85;1.00;;;4.90;99.90;;;;;;5085881;28;20066;-69
2024/02/23 03:16:53;;;;;;;7.60;0.95;;;4.90;99.90;;;;;;5105677;28;20054;-69
2024/02/23 03:19:22;;;;;;;14.75;1.60;;;4.90;99.90;;;;;;5102733;28;20472;-70
2024/02/23 03:21:49;;;;;;;8.52;1.52;;;4.80;99.90;;;;;;5107088;28;20050;-70
2024/02/23 03:24:16;;;;;;;12.32;1.67;;;4.90;99.90;;;;;;5104326;28;20316;-72
2024/02/23 03:26:43;;;;;;;4.25;1.10;;;5.00;99.90;;;;;;5081469;28;20067;-69
2024/02/23 03:29:10;;;;;;;14.00;1.35;;;4.90;99.90;;;;;;5105124;28;20058;-69
2024/02/23 03:31:37;;;;;;;4.75;0.90;;;4.90;99.90;;;;;;5107191;28;20405;-69
2024/02/23 03:34:04;;;;;;;13.77;2.20;;;4.90;99.90;;;;;;5104229;28;20068;-69
2024/02/23 03:36:31;;;;;;;7.63;1.30;;;4.90;99.90;;;;;;5100217;28;20046;-71
2024/02/23 03:38:58;;;;;;;8.95;1.65;;;4.80;99.90;;;;;;5103239;28;20052;-70
2024/02/23 03:41:24;;;;;;;4.75;1.63;;;4.90;99.90;;;;;;5103702;28;20109;-70
2024/02/23 03:43:51;;;;;;;7.47;1.73;;;4.80;99.90;;;;;;5102269;28;20166;-70
2024/02/23 03:46:19;;;;;;;12.55;1.85;;;4.80;99.90;;;;;;5106070;28;20199;-69
2024/02/23 03:48:46;;;;;;;9.40;1.20;;;4.80;99.90;;;;;;5105592;28;20176;-69
2024/02/23 03:51:13;;;;;;;4.82;1.10;;;4.80;99.90;;;;;;5106269;28;20043;-69
2024/02/23 03:53:40;;;;;;;10.30;1.30;;;4.90;99.90;;;;;;5106733;28;20044;-69
2024/02/23 03:56:06;;;;;;;13.90;1.35;;;4.80;99.90;;;;;;5100648;28;20047;-69
2024/02/23 03:58:33;;;;;;;10.40;1.77;;;4.90;99.90;;;;;;5100710;28;20055;-70
2024/02/23 04:01:00;;;;;;;6.43;1.05;;;4.80;99.90;;;;;;5105708;28;20515;-70
2024/02/23 04:03:27;;;;;;;8.77;1.23;;;4.80;99.90;;;;;;5106766;28;20136;-70
2024/02/23 04:05:54;;;;;;;7.10;1.38;;;4.80;99.90;;;;;;5102415;28;20043;-72
2024/02/23 04:08:21;;;;;;;4.70;0.75;;;4.80;99.90;;;;;;5098036;28;20591;-70
2024/02/23 04:10:48;;;;;;;9.57;1.70;;;4.90;99.90;;;;;;5100311;28;20066;-70
2024/02/23 04:13:15;;;;;;;7.30;0.82;;;4.80;99.90;;;;;;5105715;28;20096;-69
2024/02/23 04:15:42;;;;;;;7.80;1.92;;;4.80;99.90;;;;;;5098972;28;20269;-70
2024/02/23 04:18:09;;;;;;;7.75;1.33;;;4.80;99.90;;;;;;5092882;28;20044;-70
2024/02/23 04:20:35;;;;;;;2.08;0.50;;;4.90;99.90;;;;;;5101954;28;20091;-68
2024/02/23 04:23:02;;;;;;;7.60;1.50;;;4.90;99.90;;;;;;5096195;28;20047;-70
2024/02/23 04:25:29;;;;;;;3.95;0.90;;;4.90;99.90;;;;;;5087627;28;20392;-69
2024/02/23 04:27:56;;;;;;;3.08;0.77;;;4.90;99.90;;;;;;5103306;28;20101;-69
2024/02/23 04:30:23;;;;;;;6.57;1.55;;;5.00;99.90;;;;;;5086938;28;20415;-69
2024/02/23 04:32:50;;;;;;;6.10;0.80;;;5.00;99.90;;;;;;5093379;28;20094;-70
2024/02/23 04:35:17;;;;;;;5.60;2.22;;;5.00;99.90;;;;;;5099036;28;20047;-70
2024/02/23 04:37:45;;;;;;;5.47;1.10;;;5.10;99.90;;;;;;5096535;28;20120;-69
2024/02/23 04:40:12;;;;;;;3.70;0.75;;;5.10;99.90;;;;;;5106411;28;20048;-67
2024/02/23 04:42:38;;;;;;;3.20;0.40;;;5.20;99.90;;;;;;5096748;28;20043;-69
2024/02/23 04:45:06;;;;;;;3.42;0.90;;;5.20;99.90;;;;;;5104481;28;20527;-69
2024/02/23 04:47:33;;;;;;;10.35;1.20;;;5.30;99.90;;;;;;5084534;28;20044;-69
2024/02/23 04:50:00;;;;;;;7.80;0.70;;;5.30;99.90;;;;;;5106744;28;20096;-69
2024/02/23 04:52:27;;;;;;;3.90;1.00;;;5.40;99.90;;;;;;5106200;28;20035;-69
2024/02/23 04:54:53;;;;;;;3.72;0.85;;;5.40;99.90;;;;;;5108442;28;20039;-70
2024/02/23 04:57:20;;;;;;;4.10;1.05;;;5.40;99.90;;;;;;5105102;28;20047;-69
2024/02/23 04:59:47;;;;;;;6.22;1.00;;;5.40;99.90;;;;;;5089724;28;20040;-70
2024/02/23 05:02:14;;;;;;;2.97;0.50;;;5.50;99.90;;;;;;5090825;28;20051;-69
2024/02/23 05:04:41;;;;;;;6.93;0.88;;;5.50;99.90;;;;;;5103757;28;20492;-70
2024/02/23 05:07:08;;;;;;;5.72;0.82;;;5.50;99.90;;;;;;5108025;28;20039;-69
2024/02/23 05:09:35;;;;;;;9.40;0.93;;;5.50;99.90;;;;;;5110581;28;20397;-69
2024/02/23 05:12:02;;;;;;;4.80;1.00;;;5.50;99.90;;;;;;5107483;28;20054;-69
2024/02/23 05:14:29;;;;;;;5.18;0.60;;;5.50;99.90;;;;;;5104190;28;20054;-69
2024/02/23 05:16:56;;;;;;;4.65;1.15;;;5.50;99.90;;;;;;5099854;28;20146;-70
2024/02/23 05:19:23;;;;;;;5.25;0.70;;;5.50;99.90;;;;;;5106619;28;20039;-69
2024/02/23 05:21:50;;;;;;;3.03;0.82;;;5.50;99.90;;;;;;5090973;28;20043;-70
2024/02/23 05:24:17;;;;;;;4.85;0.77;;;5.50;99.90;;;;;;5107718;28;20043;-70
2024/02/23 05:26:44;;;;;;;4.07;0.93;;;5.50;99.90;;;;;;5108432;28;20515;-70
2024/02/23 05:29:12;;;;;;;2.53;0.73;;;5.50;99.90;;;;;;5103701;28;20075;-69
2024/02/23 05:31:51;;;;;;;4.90;0.80;;;5.50;99.90;;;;;;5101195;28;20036;-69
2024/02/23 05:34:20;;;;;;;3.90;0.70;;;5.60;99.90;;;;;;5102083;28;20043;-71
2024/02/23 05:36:47;;;;;;;7.97;1.52;;;5.60;99.90;;;;;;5087147;28;20044;-70
2024/02/23 05:39:17;;;;;;;3.50;0.82;;;5.50;99.90;;;;;;5090047;28;20492;-70
2024/02/23 05:41:44;;;;;;;8.50;1.13;;;5.50;99.90;;;;;;5108447;28;20135;-69
2024/02/23 05:44:13;;;;;;;5.78;0.50;;;5.50;99.90;;;;;;5086041;28;20109;-69
2024/02/23 05:46:40;;;;;;;3.60;0.95;;;5.40;99.90;;;;;;5105343;28;20567;-70
2024/02/23 05:49:07;;;;;;;2.70;0.65;;;5.40;99.90;;;;;;5108100;28;20040;-70
2024/02/23 05:51:35;;;;;;;10.02;1.17;;;5.40;99.90;;;;;;5102998;28;20094;-70
2024/02/23 05:54:02;;;;;;;4.95;1.00;;;5.30;99.90;;;;;;5102490;28;20048;-70
2024/02/23 05:56:28;;;;;;;2.80;0.75;;;5.30;99.90;;;;;;5104812;28;20040;-71
2024/02/23 05:58:55;;;;;;;2.53;0.70;;;5.30;99.90;;;;;;5097130;28;20074;-71
2024/02/23 06:01:22;;;;;;;3.97;0.60;;;5.20;99.90;;;;;;5108972;28;20040;-70
2024/02/23 06:03:49;;;;;;;7.13;0.95;;;5.20;99.90;;;;;;5097676;28;20860;-71
2024/02/23 06:06:16;;;;;;;3.97;0.73;;;5.10;99.90;;;;;;5100558;28;20044;-71
2024/02/23 06:08:43;;;;;;;5.57;0.93;;;5.10;99.90;;;;;;5102236;28;20777;-71
2024/02/23 06:11:10;;;;;;;5.30;1.20;;;5.00;99.90;;;;;;5108832;28;20044;-73
2024/02/23 06:13:37;;;;;;;2.83;0.93;;;5.00;99.90;;;;;;5108071;28;20043;-72
2024/02/23 06:16:11;;;;;;;9.20;1.70;;;4.90;99.90;;;;;;5075007;28;20172;-71
2024/02/23 06:18:40;;;;;;;3.67;0.93;;;5.00;99.90;;;;;;5104287;28;20420;-70
2024/02/23 06:21:14;;;;;;;12.20;2.42;;;4.90;99.90;;;;;;5108792;28;20656;-70
2024/02/23 06:23:41;;;;;;;4.47;1.42;;;4.90;99.90;;;;;;5105367;28;20048;-70
2024/02/23 06:26:08;;;;;;;6.53;0.95;;;4.90;99.90;;;;;;5089946;28;20085;-69
2024/02/23 06:28:37;;;;;;;5.72;0.80;;;4.80;99.90;;;;;;5086375;28;20505;-70
2024/02/23 06:31:07;;;;;;;4.90;0.50;;;4.80;99.90;;;;;;5106013;28;20103;-70
2024/02/23 06:33:34;;;;;;;3.88;0.90;;;4.80;99.90;;;;;;5106322;28;20043;-71
2024/02/23 06:36:01;;;;;;;4.10;1.20;;;4.80;99.90;;;;;;5106762;28;20100;-71
2024/02/23 06:38:28;;;;;;;1.90;0.60;;;4.80;99.90;;;;;;5098533;28;20488;-71
2024/02/23 06:40:56;;;;;;;4.88;0.50;;;4.70;99.90;;;;;;5105220;28;20411;-70
2024/02/23 06:43:23;;;;;;;6.25;1.05;;;4.70;99.90;;;;;;5106615;28;20040;-70
2024/02/23 06:45:50;;;;;;;6.22;1.05;;;4.70;99.90;;;;;;5102289;28;20140;-71
2024/02/23 06:48:17;;;;;;;5.32;1.13;;;4.70;99.90;;;;;;5086133;28;20035;-72
2024/02/23 06:50:44;;;;;;;4.47;0.95;;;4.70;99.90;;;;;;5104214;28;20070;-70
2024/02/23 06:53:11;;;;;;;3.78;0.63;;;4.70;99.90;;;;;;5086571;28;20042;-70
2024/02/23 06:55:38;;;;;;;9.95;1.00;;;4.70;99.90;;;;;;5103572;28;20222;-70
2024/02/23 06:58:07;;;;;;;5.40;1.30;;;4.70;99.90;;;;;;5102583;28;20056;-70
2024/02/23 07:00:33;;;;;;;3.33;0.55;;;4.70;99.90;;;;;;5104964;28;20040;-71
2024/02/23 07:03:03;;;;;;;4.15;0.88;;;4.70;99.90;;;;;;5104624;28;20112;-71
2024/02/23 07:05:30;;;;;;;8.15;0.98;;;4.70;99.90;;;;;;5105966;28;20062;-71
2024/02/23 07:08:04;;;;;;;4.07;0.90;;;4.70;99.90;;;;;;5105619;28;20050;-69
2024/02/23 07:10:31;;;;;;;2.65;0.82;;;4.70;99.90;;;;;;5105424;28;20151;-70
2024/02/23 07:12:58;;;;;;;4.35;1.08;;;4.60;99.90;;;;;;5087626;28;20040;-70
2024/02/23 07:15:25;;;;;;;6.47;1.23;;;4.70;99.90;;;;;;5100719;28;20048;-71
2024/02/23 07:17:52;;;;;;;10.55;1.27;;;4.70;99.90;;;;;;5098420;28;20049;-70
2024/02/23 07:20:19;;;;;;;9.13;1.05;;;4.70;99.90;;;;;;5102302;28;20054;-71
2024/02/23 07:22:46;;;;;;;4.43;1.10;;;4.70;99.90;;;;;;5106338;28;20036;-70
2024/02/23 07:25:22;;;;;;;5.05;1.38;;;4.70;99.90;;;;;;5078916;28;20047;-69
2024/02/23 07:27:50;;;;;;;2.75;0.88;;;4.70;99.90;;;;;;5105316;28;20055;-69
2024/02/23 07:30:17;;;;;;;8.32;1.70;;;4.70;99.90;;;;;;5086607;28;20069;-69
2024/02/23 07:32:44;;;;;;;3.88;1.60;;;4.70;99.90;;;;;;5105149;28;20044;-69
2024/02/23 07:35:15;;;;;;;6.28;1.05;;;4.70;99.90;;;;;;5105697;28;20272;-69
2024/02/23 07:37:42;;;;;;;9.25;1.25;;;4.80;99.90;;;;;;5101628;28;20055;-70
2024/02/23 07:40:10;;;;;;;5.28;1.17;;;4.70;99.90;;;;;;5102610;28;20071;-69
2024/02/23 07:42:37;;;;;;;3.13;1.25;;;4.80;99.90;;;;;;5095223;28;20372;-73
2024/02/23 07:45:04;;;;;;;3.45;0.80;;;4.80;99.90;;;;;;5104454;28;20047;-71
2024/02/23 07:47:31;;;;;;;5.90;1.00;;;4.80;99.90;;;;;;5106356;28;20040;-71
2024/02/23 07:49:58;;;;;;;8.30;1.00;;;4.80;99.90;;;;;;5106220;28;20062;-69
2024/02/23 07:52:25;;;;;;;15.13;2.47;;;4.80;99.90;;;;;;5103831;28;20082;-66
2024/02/23 07:54:53;;;;;;;5.25;0.65;;;4.90;99.90;;;;;;5087159;28;20636;-74
2024/02/23 07:57:20;;;;;;;5.18;0.95;;;5.00;99.90;;;;;;5099118;28;20047;-77
2024/02/23 07:59:47;;;;;;;5.40;1.13;;;5.00;99.90;;;;;;5098988;28;20056;-79
2024/02/23 08:02:14;;;;;;;6.68;1.17;;;5.00;99.90;;;;;;5105282;28;20048;-78
2024/02/23 08:04:42;;;;;;;10.13;1.70;;;5.10;99.90;;;;;;5113157;28;20100;-78
2024/02/23 08:07:09;;;;;;;8.55;1.67;;;5.10;99.90;;;;;;5108686;28;20088;-76
2024/02/23 08:09:36;;;;;;;5.35;0.77;;;5.10;99.90;;;;;;5100402;28;20092;-76
2024/02/23 08:12:03;;;;;;;4.00;0.80;;;5.10;99.90;;;;;;5099869;28;20043;-79
2024/02/23 08:14:30;;;;;;;4.15;1.00;;;5.20;99.90;;;;;;5106805;28;20139;-76
2024/02/23 08:16:57;;;;;;;5.03;0.70;;;5.20;99.90;;;;;;5101460;28;20070;-78
2024/02/23 08:19:24;;;;;;;7.82;1.45;;;5.30;99.90;;;;;;5100285;28;20130;-74
2024/02/23 08:21:51;;;;;;;6.57;1.15;;;5.30;99.90;;;;;;5101524;28;20044;-76
2024/02/23 08:24:17;;;;;;;16.33;2.35;;;5.30;99.90;;;;;;5095833;28;20047;-77
2024/02/23 08:26:44;;;;;;;6.38;1.00;;;5.40;99.90;;;;;;5097697;28;20062;-69
2024/02/23 08:29:11;;;;;;;7.47;1.13;;;5.40;99.90;;;;;;5103260;28;20092;-78
2024/02/23 08:31:38;;;;;;;6.93;1.58;;;5.40;99.90;;;;;;5102056;28;20073;-78
2024/02/23 08:34:08;;;;;;;5.50;1.02;;;5.50;99.90;;;;;;5095347;28;20069;-77
2024/02/23 08:36:35;;;;;;;4.53;0.75;;;5.50;99.90;;;;;;5095450;28;20381;-74
2024/02/23 08:39:02;;;;;;;4.85;1.25;;;5.60;99.90;;;;;;5100977;28;20076;-77
2024/02/23 08:41:30;;;;;;;7.07;1.35;;;5.60;99.90;;;;;;5098267;28;20071;-78
2024/02/23 08:43:57;;;;;;;6.32;1.00;;;5.60;99.90;;;;;;5096700;28;20057;-77
2024/02/23 08:46:24;;;;;;;7.28;0.98;;;5.70;99.90;;;;;;5096513;28;20047;-77
2024/02/23 08:48:50;;;;;;;7.15;1.70;;;5.70;99.90;;;;;;5101511;28;20071;-77
2024/02/23 08:51:17;;;;;;;4.78;0.90;;;5.70;99.90;;;;;;5070864;28;20475;-77
2024/02/23 08:53:44;;;;;;;5.45;1.20;;;5.80;99.90;;;;;;5105406;28;20200;-78
2024/02/23 08:56:12;;;;;;;5.75;1.13;;;5.90;99.90;;;;;;5104416;28;20035;-78
2024/02/23 08:58:39;;;;;;;4.13;1.05;;;6.00;99.90;;;;;;5087589;28;20384;-77
2024/02/23 09:01:05;;;;;;;11.80;1.23;;;6.20;99.90;;;;;;5096975;28;20104;-78
2024/02/23 09:03:32;;;;;;;3.20;0.70;;;6.30;99.90;;;;;;5101035;28;20438;-78
2024/02/23 09:06:00;;;;;;;6.13;1.15;;;6.40;99.90;;;;;;5101370;28;20044;-77
2024/02/23 09:08:27;;;;;;;7.65;2.03;;;6.50;99.90;;;;;;5104310;28;20047;-77
2024/02/23 09:10:54;;;;;;;3.70;0.90;;;6.60;99.90;;;;;;5105562;28;20518;-76
2024/02/23 09:13:21;;;;;;;11.10;1.50;;;6.80;99.90;;;;;;5105403;28;20077;-76
2024/02/23 09:15:48;;;;;;;10.45;1.42;;;7.00;99.90;;;;;;5098474;28;20497;-77
2024/02/23 09:18:14;;;;;;;8.38;1.20;;;7.20;99.90;;;;;;5081097;28;20181;-77
2024/02/23 09:20:44;;;;;;;4.75;0.90;;;7.40;99.90;;;;;;5105152;28;20520;-77
2024/02/23 09:23:11;;;;;;;7.97;1.05;;;7.50;99.90;;;;;;5106189;28;20107;-76
2024/02/23 09:25:39;;;;;;;5.97;1.15;;;7.70;99.90;;;;;;5089156;28;20353;-77
2024/02/23 09:28:11;;;;;;;5.95;1.52;;;7.80;99.90;;;;;;5090537;28;20040;-77
2024/02/23 09:30:38;;;;;;;6.22;1.42;;;7.80;99.90;;;;;;5103214;28;20100;-77
2024/02/23 09:33:05;;;;;;;4.28;0.98;;;7.80;99.90;;;;;;5104513;28;20051;-77
2024/02/23 09:35:32;;;;;;;5.57;1.10;;;7.80;99.90;;;;;;5099109;28;20075;-78
2024/02/23 09:37:59;;;;;;;13.00;1.85;;;7.60;99.90;;;;;;5101784;28;20036;-77
2024/02/23 09:40:26;;;;;;;8.10;1.60;;;7.40;99.90;;;;;;5111035;28;20449;-77
2024/02/23 09:42:57;;;;;;;5.30;2.15;;;7.20;99.90;;;;;;5089713;28;20117;-77
2024/02/23 09:45:25;;;;;;;5.20;1.20;;;7.20;99.90;;;;;;5107949;28;20044;-78
2024/02/23 09:47:56;;;;;;;4.70;1.38;;;7.20;99.90;;;;;;5104482;28;20044;-76
2024/02/23 09:50:24;;;;;;;9.48;1.90;;;7.20;99.90;;;;;;5106642;28;20063;-76
2024/02/23 09:52:51;;;;;;;9.75;1.33;;;7.20;99.90;;;;;;5088511;28;20044;-77
2024/02/23 09:55:18;;;;;;;8.63;1.10;;;7.20;99.90;;;;;;5091246;28;20051;-77
2024/02/23 09:57:46;;;;;;;9.93;1.55;;;7.20;99.90;;;;;;5099110;28;20155;-78
2024/02/23 10:00:13;;;;;;;3.50;1.52;;;7.10;99.90;;;;;;5089088;28;20043;-77
2024/02/23 10:02:41;;;;;;;4.65;1.00;;;7.20;99.90;;;;;;5091747;28;20055;-78
2024/02/23 10:05:08;;;;;;;5.35;1.20;;;7.20;99.90;;;;;;5083362;28;20074;-78
2024/02/23 10:07:35;;;;;;;7.15;1.40;;;7.30;99.90;;;;;;5090498;28;20063;-77
2024/02/23 10:10:03;;;;;;;7.57;1.73;;;7.20;99.90;;;;;;5081862;28;20515;-78
2024/02/23 10:12:30;;;;;;;16.45;4.07;;;7.30;99.90;;;;;;5108860;28;20043;-77
2024/02/23 10:14:57;;;;;;;9.98;2.10;;;7.30;99.90;;;;;;5109435;28;20059;-77
2024/02/23 10:17:24;;;;;;;16.13;1.92;;;7.40;99.90;;;;;;5107915;28;20040;-77
2024/02/23 10:19:51;;;;;;;10.73;1.33;;;7.30;99.90;;;;;;5109302;28;20047;-78
2024/02/23 10:22:20;;;;;;;7.28;1.33;;;7.40;99.90;;;;;;5107853;28;20040;-77
2024/02/23 10:24:47;;;;;;;8.20;1.35;;;7.50;99.90;;;;;;5108708;28;20119;-77
2024/02/23 10:27:14;;;;;;;5.30;1.50;;;7.50;99.90;;;;;;5105424;28;20105;-79
2024/02/23 10:29:41;;;;;;;6.20;1.77;;;7.50;99.90;;;;;;5107583;28;20503;-78
2024/02/23 10:32:14;;;;;;;8.38;1.83;;;7.60;99.90;;;;;;5108441;28;20043;-77
2024/02/23 10:34:43;;;;;;;11.45;1.73;;;7.70;99.90;;;;;;5108503;28;20407;-77
2024/02/23 10:37:11;;;;;;;4.72;0.88;;;7.80;99.90;;;;;;5106604;28;20492;-77
2024/02/23 10:39:38;;;;;;;20.65;2.72;;;7.90;99.90;;;;;;5090840;28;20507;-78
2024/02/23 10:42:05;;;;;;;13.35;1.48;;;7.80;99.90;;;;;;5089160;28;20504;-76
2024/02/23 10:44:32;;;;;;;10.50;1.45;;;7.80;99.90;;;;;;5090614;28;20495;-76
2024/02/23 10:46:59;;;;;;;5.63;1.45;;;7.80;99.90;;;;;;5089755;28;20067;-77
2024/02/23 10:49:26;;;;;;;14.32;3.53;;;7.90;99.90;;;;;;5089559;28;20499;-76
2024/02/23 10:51:54;;;;;;;7.50;1.45;;;8.00;99.90;;;;;;5088479;28;20210;-77
2024/02/23 10:54:21;;;;;;;10.05;1.63;;;8.10;99.90;;;;;;5098957;28;20365;-76
2024/02/23 10:56:50;;;;;;;12.85;1.85;;;8.20;99.90;;;;;;5104632;28;20051;-77
2024/02/23 10:59:18;;;;;;;17.80;1.80;;;8.20;99.90;;;;;;5089055;28;20066;-75
2024/02/23 11:01:49;;;;;;;6.65;1.20;;;8.30;99.90;;;;;;5107762;28;20089;-76
2024/02/23 11:04:19;;;;;;;7.03;1.80;;;8.20;99.90;;;;;;5085171;28;20097;-76
2024/02/23 11:07:03;;;;;;;13.23;1.90;;;8.30;99.90;;;;;;5068279;28;20063;-77
2024/02/23 11:09:31;;;;;;;8.07;1.48;;;8.40;99.90;;;;;;5113864;28;20048;-77
2024/02/23 11:11:58;;;;;;;7.85;2.28;;;8.40;99.90;;;;;;5081276;28;20508;-76
2024/02/23 11:14:36;;;;;;;7.47;2.17;;;8.50;99.90;;;;;;5115177;28;20044;-77
2024/02/23 11:17:03;;;;;;;7.25;1.80;;;8.50;99.90;;;;;;5108802;28;20303;-77
2024/02/23 11:19:39;;;;;;;11.02;1.52;;;8.60;99.90;;;;;;5109427;28;20148;-77
2024/02/23 11:22:09;;;;;;;7.65;1.73;;;8.60;99.90;;;;;;5091411;28;20040;-77
2024/02/23 11:24:49;;;;;;;8.95;1.50;;;8.60;99.90;;;;;;5113621;28;20052;-77
2024/02/23 11:27:19;;;;;;;15.70;1.75;;;8.60;99.90;;;;;;5110850;28;20044;-76
2024/02/23 11:29:48;;;;;;;8.57;1.30;;;8.60;99.90;;;;;;5115196;28;20039;-76
2024/02/23 11:32:16;;;;;;;7.28;1.17;;;8.60;99.90;;;;;;5094176;28;20043;-78
2024/02/23 11:34:55;;;;;;;10.10;1.77;;;8.50;99.90;;;;;;5089975;28;20091;-77
2024/02/23 11:37:22;;;;;;;8.93;1.98;;;8.40;99.90;;;;;;5107226;28;20079;-76
2024/02/23 11:39:49;;;;;;;7.22;1.80;;;8.40;99.90;;;;;;5108081;28;20040;-77
2024/02/23 11:42:16;;;;;;;10.65;1.60;;;8.40;99.90;;;;;;5090010;28;20046;-77
2024/02/23 11:44:43;;;;;;;10.75;2.50;;;8.40;99.90;;;;;;5071045;28;20105;-76
2024/02/23 11:47:10;;;;;;;11.77;1.67;;;8.50;99.90;;;;;;5090838;28;20446;-75
2024/02/23 11:49:37;;;;;;;12.75;1.38;;;8.60;99.90;;;;;;5109353;28;20054;-77
2024/02/23 11:52:04;;;;;;;16.50;1.48;;;8.70;99.90;;;;;;5097596;28;20051;-76
2024/02/23 11:54:31;;;;;;;7.45;1.17;;;8.90;99.90;;;;;;5073243;28;20040;-77
2024/02/23 11:56:58;;;;;;;4.10;1.02;;;9.00;99.90;;;;;;5089106;28;20048;-77
2024/02/23 11:59:25;;;;;;;7.78;1.73;;;9.20;99.90;;;;;;5089285;28;20048;-76
2024/02/23 12:01:52;;;;;;;8.85;1.77;;;9.20;99.90;;;;;;5087825;28;20471;-76
2024/02/23 12:04:19;;;;;;;7.40;1.60;;;9.40;99.90;;;;;;5105953;28;20830;-76
2024/02/23 12:06:45;;;;;;;7.00;1.42;;;9.40;99.90;;;;;;5089209;28;20075;-76
2024/02/23 12:09:13;;;;;;;16.67;1.80;;;9.60;99.90;;;;;;5104986;28;20134;-77
2024/02/23 12:11:39;;;;;;;10.13;1.67;;;9.60;99.90;;;;;;5100048;28;20054;-76
2024/02/23 12:14:09;;;;;;;7.50;1.40;;;9.70;99.90;;;;;;5101233;28;20408;-76
2024/02/23 12:16:36;;;;;;;8.50;1.73;;;9.80;99.90;;;;;;5105857;28;20048;-77
2024/02/23 12:19:03;;;;;;;9.73;2.50;;;9.70;99.90;;;;;;5106732;28;20473;-76
2024/02/23 12:21:30;;;;;;;15.55;2.03;;;9.70;99.90;;;;;;5085786;28;20039;-76
2024/02/23 12:23:57;;;;;;;6.00;1.50;;;9.60;99.90;;;;;;5071916;28;20054;-76
2024/02/23 12:26:24;;;;;;;13.88;1.73;;;9.60;99.90;;;;;;5106334;28;20446;-76
2024/02/23 12:28:51;;;;;;;11.48;1.77;;;9.40;99.90;;;;;;5077419;28;20048;-76
2024/02/23 12:31:24;;;;;;;7.85;1.77;;;9.40;99.90;;;;;;5104336;28;20116;-77
2024/02/23 12:33:51;;;;;;;10.00;2.53;;;9.50;99.90;;;;;;5081942;28;20048;-77
2024/02/23 12:36:18;;;;;;;11.02;2.60;;;9.50;99.90;;;;;;5083371;28;20070;-76
2024/02/23 12:38:45;;;;;;;11.18;1.52;;;9.60;99.90;;;;;;5085977;28;20077;-77
2024/02/23 12:41:12;;;;;;;14.80;3.83;;;9.70;99.90;;;;;;5099044;28;20048;-76
2024/02/23 12:43:38;;;;;;;11.10;2.00;;;9.70;99.90;;;;;;5101802;28;20044;-77
2024/02/23 12:46:08;;;;;;;4.65;1.45;;;9.70;99.90;;;;;;5106370;28;20119;-77
2024/02/23 12:48:35;;;;;;;9.20;1.52;;;9.70;99.90;;;;;;5105284;28;20043;-76
2024/02/23 12:51:02;;;;;;;6.22;1.35;;;9.70;99.90;;;;;;5105421;28;20055;-76
2024/02/23 12:53:35;;;;;;;11.40;1.60;;;9.60;99.90;;;;;;5105314;28;20050;-76